Current Weather

Chicago O'Hare International

Chicago, Illinois (KORD)

Report from: Sunday, June 26, 2022 11:51 AM CDT
Current time: Sunday, June 26, 2022 12:10 PM CDT

Nearby weather
Weather history
Weather forecast

Temperature25.6°C (78.1°F)
Dew point10.0°C (50.0°F)
Winds 13 kts (6.7 m/s, 15 mph) West-Northwest (300°)
Visibility10 mi. (16.1 km)
Clouds Few clouds 10,000 ft. (3,048 m)
Few clouds 25,000 ft. (7,620 m)
Altimeter30.06 in.Hg (1018 mB)
Relative humidity37 %
Density altitude1,244 ft. (379 m)
Sea-level pressure101.7 kPa (1017 mB, 30.04 in.Hg)
Remarks System requires maintenance
Automated weather observing station with precipitation discriminator
Flight conditions Visual Meteorological Conditions
Raw dataKORD 261651Z 30013KT 10SM FEW100 FEW250 26/10 A3006 RMK AO2 SLP173 T02560100 $
An error has occurred. This application may no longer respond until reloaded. Reload 🗙